Time,TemperatureF,DewpointF,PressureIn,WindDirection,WindDirectionDegrees,WindSpeedMPH,WindSpeedGustMPH,Humidity,HourlyPrecipIn,Conditions,Clouds,dailyrainin,SolarRadiationWatts/m^2,SoftwareType,DateUTC
2013-06-04 00:00:00,48.0,43.0,-100.00,SE,135,1.0,-999.0,83,-99.99,,,-99.99,0.000000,,2013-06-04 04:00:00,
2013-06-04 00:33:00,48.0,43.0,-100.00,SE,135,1.0,-999.0,83,-99.99,,,-99.99,0.000000,,2013-06-04 04:33:00,
2013-06-04 00:42:00,48.0,43.0,-100.00,SE,135,1.0,-999.0,83,-99.99,,,-99.99,0.000000,,2013-06-04 04:42:00,
2013-06-04 00:53:00,48.0,43.0,-100.00,SE,135,1.0,-999.0,83,-99.99,,,-99.99,0.000000,,2013-06-04 04:53:00,
2013-06-04 01:00:00,46.0,42.0,-100.00,SE,135,1.0,-999.0,85,-99.99,,,-99.99,0.000000,,2013-06-04 05:00:00,
2013-06-04 01:32:00,46.0,42.0,-100.00,SE,135,1.0,-999.0,85,-99.99,,,-99.99,0.000000,,2013-06-04 05:32:00,
2013-06-04 01:42:00,46.0,42.0,-100.00,SE,135,1.0,-999.0,85,-99.99,,,-99.99,0.000000,,2013-06-04 05:42:00,
2013-06-04 01:52:00,46.0,42.0,-100.00,SE,135,1.0,-999.0,85,-99.99,,,-99.99,0.000000,,2013-06-04 05:52:00,
2013-06-04 02:00:00,46.0,42.0,-100.00,SE,135,1.0,-999.0,86,-99.99,,,-99.99,0.000000,,2013-06-04 06:00:00,
2013-06-04 02:32:00,46.0,42.0,-100.00,SE,135,1.0,-999.0,86,-99.99,,,-99.99,0.000000,,2013-06-04 06:32:00,
2013-06-04 02:42:00,46.0,42.0,-100.00,SE,135,1.0,-999.0,86,-99.99,,,-99.99,0.000000,,2013-06-04 06:42:00,
2013-06-04 02:52:00,46.0,42.0,-100.00,SE,135,1.0,-999.0,86,-99.99,,,-99.99,0.000000,,2013-06-04 06:52:00,
2013-06-04 03:00:00,45.0,41.0,-100.00,West,270,1.0,-999.0,86,-99.99,,,-99.99,0.000000,,2013-06-04 07:00:00,
2013-06-04 03:32:00,45.0,41.0,-100.00,West,270,1.0,-999.0,86,-99.99,,,-99.99,0.000000,,2013-06-04 07:32:00,
2013-06-04 03:42:00,45.0,41.0,-100.00,West,270,1.0,-999.0,86,-99.99,,,-99.99,0.000000,,2013-06-04 07:42:00,
2013-06-04 03:52:00,45.0,41.0,-100.00,West,270,1.0,-999.0,86,-99.99,,,-99.99,0.000000,,2013-06-04 07:52:00,
2013-06-04 04:00:00,44.0,41.0,-100.00,WNW,292,1.0,-999.0,87,-99.99,,,-99.99,0.000000,,2013-06-04 08:00:00,
2013-06-04 04:32:00,44.0,41.0,-100.00,WNW,292,1.0,-999.0,87,-99.99,,,-99.99,0.000000,,2013-06-04 08:32:00,
2013-06-04 04:42:00,44.0,41.0,-100.00,WNW,292,1.0,-999.0,87,-99.99,,,-99.99,0.000000,,2013-06-04 08:42:00,
2013-06-04 04:52:00,44.0,41.0,-100.00,WNW,292,1.0,-999.0,87,-99.99,,,-99.99,0.000000,,2013-06-04 08:52:00,
2013-06-04 05:00:00,44.0,40.0,-100.00,WNW,292,1.0,-999.0,87,-99.99,,,-99.99,0.000000,,2013-06-04 09:00:00,
2013-06-04 05:33:00,44.0,40.0,-100.00,WNW,292,1.0,-999.0,87,-99.99,,,-99.99,0.000000,,2013-06-04 09:33:00,
2013-06-04 05:43:00,44.0,40.0,-100.00,WNW,292,1.0,-999.0,87,-99.99,,,-99.99,0.000000,,2013-06-04 09:43:00,
2013-06-04 05:53:00,44.0,40.0,-100.00,WNW,292,1.0,-999.0,87,-99.99,,,-99.99,0.000000,,2013-06-04 09:53:00,
2013-06-04 08:00:00,52.0,43.0,-100.00,NNW,337,4.0,-999.0,71,-99.99,,,-99.99,112.519997,,2013-06-04 12:00:00,
2013-06-04 08:32:00,52.0,43.0,-100.00,NNW,337,4.0,-999.0,71,-99.99,,,-99.99,112.519997,,2013-06-04 12:32:00,
2013-06-04 08:42:00,52.0,43.0,-100.00,NNW,337,4.0,-999.0,71,-99.99,,,-99.99,112.519997,,2013-06-04 12:42:00,
2013-06-04 08:53:00,52.0,43.0,-100.00,NNW,337,4.0,-999.0,71,-99.99,,,-99.99,112.519997,,2013-06-04 12:53:00,
2013-06-04 09:00:00,56.0,43.0,-100.00,NNW,337,5.0,-999.0,61,-99.99,,,-99.99,248.240005,,2013-06-04 13:00:00,
2013-06-04 09:32:00,56.0,43.0,-100.00,NNW,337,5.0,-999.0,61,-99.99,,,-99.99,248.240005,,2013-06-04 13:32:00,
2013-06-04 09:42:00,56.0,43.0,-100.00,NNW,337,5.0,-999.0,61,-99.99,,,-99.99,248.240005,,2013-06-04 13:42:00,
2013-06-04 09:52:00,56.0,43.0,-100.00,NNW,337,5.0,-999.0,61,-99.99,,,-99.99,248.240005,,2013-06-04 13:52:00,
2013-06-04 10:00:00,62.0,44.0,-100.00,NNW,337,6.0,-999.0,51,-99.99,,,-99.99,418.760010,,2013-06-04 14:00:00,
2013-06-04 10:32:00,62.0,44.0,-100.00,NNW,337,6.0,-999.0,51,-99.99,,,-99.99,418.760010,,2013-06-04 14:32:00,
2013-06-04 10:43:00,62.0,44.0,-100.00,NNW,337,6.0,-999.0,51,-99.99,,,-99.99,418.760010,,2013-06-04 14:43:00,
2013-06-04 10:52:00,62.0,44.0,-100.00,NNW,337,6.0,-999.0,51,-99.99,,,-99.99,418.760010,,2013-06-04 14:52:00,
2013-06-04 11:00:00,65.0,43.0,-100.00,North,0,5.0,-999.0,44,-99.99,,,-99.99,560.280029,,2013-06-04 15:00:00,
2013-06-04 11:33:00,65.0,43.0,-100.00,North,0,5.0,-999.0,44,-99.99,,,-99.99,560.280029,,2013-06-04 15:33:00,
2013-06-04 11:42:00,65.0,43.0,-100.00,North,0,5.0,-999.0,44,-99.99,,,-99.99,560.280029,,2013-06-04 15:42:00,
2013-06-04 11:53:00,65.0,43.0,-100.00,North,0,5.0,-999.0,44,-99.99,,,-99.99,560.280029,,2013-06-04 15:53:00,
2013-06-04 12:00:00,68.0,43.0,-100.00,North,0,5.0,-999.0,40,-99.99,,,-99.99,670.479980,,2013-06-04 16:00:00,
2013-06-04 12:33:00,68.0,43.0,-100.00,North,0,5.0,-999.0,40,-99.99,,,-99.99,670.479980,,2013-06-04 16:33:00,
2013-06-04 12:42:00,68.0,43.0,-100.00,North,0,5.0,-999.0,40,-99.99,,,-99.99,670.479980,,2013-06-04 16:42:00,
2013-06-04 12:53:00,68.0,43.0,-100.00,North,0,5.0,-999.0,40,-99.99,,,-99.99,670.479980,,2013-06-04 16:53:00,
2013-06-04 16:00:00,69.0,45.0,-100.00,SSW,202,8.0,-999.0,42,-99.99,,,-99.99,611.320007,,2013-06-04 20:00:00,
2013-06-04 16:32:00,69.0,45.0,-100.00,SSW,202,8.0,-999.0,42,-99.99,,,-99.99,611.320007,,2013-06-04 20:32:00,
2013-06-04 16:42:00,69.0,45.0,-100.00,SSW,202,8.0,-999.0,42,-99.99,,,-99.99,611.320007,,2013-06-04 20:42:00,
2013-06-04 16:53:00,69.0,45.0,-100.00,SSW,202,8.0,-999.0,42,-99.99,,,-99.99,611.320007,,2013-06-04 20:53:00,
2013-06-04 17:00:00,68.0,46.0,-100.00,SSW,202,6.0,-999.0,44,-99.99,,,-99.99,593.919983,,2013-06-04 21:00:00,
2013-06-04 17:33:00,68.0,46.0,-100.00,SSW,202,6.0,-999.0,44,-99.99,,,-99.99,593.919983,,2013-06-04 21:33:00,
2013-06-04 17:42:00,68.0,46.0,-100.00,SSW,202,6.0,-999.0,44,-99.99,,,-99.99,593.919983,,2013-06-04 21:42:00,
2013-06-04 17:53:00,68.0,46.0,-100.00,SSW,202,6.0,-999.0,44,-99.99,,,-99.99,593.919983,,2013-06-04 21:53:00,
2013-06-04 18:00:00,68.0,46.0,-100.00,SSW,202,5.0,-999.0,44,-99.99,,,-99.99,361.920013,,2013-06-04 22:00:00,
2013-06-04 18:33:00,68.0,46.0,-100.00,SSW,202,5.0,-999.0,44,-99.99,,,-99.99,361.920013,,2013-06-04 22:33:00,
2013-06-04 18:42:00,68.0,46.0,-100.00,SSW,202,5.0,-999.0,44,-99.99,,,-99.99,361.920013,,2013-06-04 22:42:00,
2013-06-04 18:52:00,68.0,46.0,-100.00,SSW,202,5.0,-999.0,44,-99.99,,,-99.99,361.920013,,2013-06-04 22:52:00,
2013-06-04 19:00:00,66.0,44.0,-100.00,SW,225,4.0,-999.0,45,-99.99,,,-99.99,213.440002,,2013-06-04 23:00:00,
2013-06-04 19:32:00,66.0,44.0,-100.00,SW,225,4.0,-999.0,45,-99.99,,,-99.99,213.440002,,2013-06-04 23:32:00,
2013-06-04 19:42:00,66.0,44.0,-100.00,SW,225,4.0,-999.0,45,-99.99,,,-99.99,213.440002,,2013-06-04 23:42:00,
2013-06-04 19:52:00,66.0,44.0,-100.00,SW,225,4.0,-999.0,45,-99.99,,,-99.99,213.440002,,2013-06-04 23:52:00,
2013-06-04 20:00:00,66.0,43.0,-100.00,WSW,247,2.0,-999.0,43,-99.99,,,-99.99,145.000000,,2013-06-05 00:00:00,
2013-06-04 20:33:00,66.0,43.0,-100.00,WSW,247,2.0,-999.0,43,-99.99,,,-99.99,145.000000,,2013-06-05 00:33:00,
2013-06-04 20:42:00,66.0,43.0,-100.00,WSW,247,2.0,-999.0,43,-99.99,,,-99.99,145.000000,,2013-06-05 00:42:00,
2013-06-04 20:52:00,66.0,43.0,-100.00,WSW,247,2.0,-999.0,43,-99.99,,,-99.99,145.000000,,2013-06-05 00:52:00,
2013-06-04 21:00:00,65.0,46.0,-100.00,WSW,247,1.0,-999.0,50,-99.99,,,-99.99,66.120003,,2013-06-05 01:00:00,
2013-06-04 21:32:00,65.0,46.0,-100.00,WSW,247,1.0,-999.0,50,-99.99,,,-99.99,66.120003,,2013-06-05 01:32:00,
2013-06-04 21:42:00,65.0,46.0,-100.00,WSW,247,1.0,-999.0,50,-99.99,,,-99.99,66.120003,,2013-06-05 01:42:00,
2013-06-04 21:52:00,65.0,46.0,-100.00,WSW,247,1.0,-999.0,50,-99.99,,,-99.99,66.120003,,2013-06-05 01:52:00,
2013-06-04 23:00:00,60.0,48.0,-100.00,WNW,292,4.0,-999.0,63,-99.99,,,-99.99,0.000000,,2013-06-05 03:00:00,
2013-06-04 23:33:00,60.0,48.0,-100.00,WNW,292,4.0,-999.0,63,-99.99,,,-99.99,0.000000,,2013-06-05 03:33:00,
2013-06-04 23:43:00,60.0,48.0,-100.00,WNW,292,4.0,-999.0,63,-99.99,,,-99.99,0.000000,,2013-06-05 03:43:00,
2013-06-04 23:53:00,60.0,48.0,-100.00,WNW,292,4.0,-999.0,63,-99.99,,,-99.99,0.000000,,2013-06-05 03:53:00,